sensor_id;sensor_type;location;lat;lon;timestamp;pressure;altitude;pressure_sealevel;temperature
18713;BMP280;9485;49.386;8.674;2023-03-05T00:03:35;100827.25;;;7.74
18713;BMP280;9485;49.386;8.674;2023-03-05T00:08:55;100822.59;;;7.71
18713;BMP280;9485;49.386;8.674;2023-03-05T00:14:16;100824.75;;;7.67
18713;BMP280;9485;49.386;8.674;2023-03-05T00:19:38;100812.59;;;7.70
18713;BMP280;9485;49.386;8.674;2023-03-05T00:24:59;100809.31;;;7.71
18713;BMP280;9485;49.386;8.674;2023-03-05T00:30:20;100820.53;;;7.71
18713;BMP280;9485;49.386;8.674;2023-03-05T00:35:44;100802.91;;;7.71
18713;BMP280;9485;49.386;8.674;2023-03-05T00:41:05;100806.97;;;7.70
18713;BMP280;9485;49.386;8.674;2023-03-05T00:46:26;100805.25;;;7.72
18713;BMP280;9485;49.386;8.674;2023-03-05T00:51:48;100798.06;;;7.71
18713;BMP280;9485;49.386;8.674;2023-03-05T00:57:09;100793.06;;;7.66
18713;BMP280;9485;49.386;8.674;2023-03-05T01:02:30;100766.34;;;7.53
18713;BMP280;9485;49.386;8.674;2023-03-05T01:07:53;100782.75;;;7.63
18713;BMP280;9485;49.386;8.674;2023-03-05T01:13:14;100782.91;;;7.60
18713;BMP280;9485;49.386;8.674;2023-03-05T01:18:36;100766.34;;;7.53
18713;BMP280;9485;49.386;8.674;2023-03-05T01:23:58;100760.28;;;7.54
18713;BMP280;9485;49.386;8.674;2023-03-05T01:29:18;100761.84;;;7.55
18713;BMP280;9485;49.386;8.674;2023-03-05T01:34:40;100748.09;;;7.57
18713;BMP280;9485;49.386;8.674;2023-03-05T01:40:03;100744.19;;;7.55
18713;BMP280;9485;49.386;8.674;2023-03-05T01:45:25;100742.47;;;7.57
18713;BMP280;9485;49.386;8.674;2023-03-05T01:50:46;100736.41;;;7.59
18713;BMP280;9485;49.386;8.674;2023-03-05T01:56:09;100739.22;;;7.59
18713;BMP280;9485;49.386;8.674;2023-03-05T02:01:34;100732.31;;;7.60
18713;BMP280;9485;49.386;8.674;2023-03-05T02:06:57;100734.03;;;7.57
18713;BMP280;9485;49.386;8.674;2023-03-05T02:12:21;100733.28;;;7.57
18713;BMP280;9485;49.386;8.674;2023-03-05T02:17:42;100730.94;;;7.55
18713;BMP280;9485;49.386;8.674;2023-03-05T02:23:04;100728.88;;;7.56
18713;BMP280;9485;49.386;8.674;2023-03-05T02:28:30;100709.38;;;7.52
18713;BMP280;9485;49.386;8.674;2023-03-05T02:33:53;100711.25;;;7.55
18713;BMP280;9485;49.386;8.674;2023-03-05T02:39:19;100708.13;;;7.53
18713;BMP280;9485;49.386;8.674;2023-03-05T02:44:40;100701.44;;;7.51
18713;BMP280;9485;49.386;8.674;2023-03-05T02:50:00;100693.75;;;7.51
18713;BMP280;9485;49.386;8.674;2023-03-05T02:55:23;100691.44;;;7.50
18713;BMP280;9485;49.386;8.674;2023-03-05T03:00:44;100693.16;;;7.47
18713;BMP280;9485;49.386;8.674;2023-03-05T03:06:06;100678.78;;;7.45
18713;BMP280;9485;49.386;8.674;2023-03-05T03:11:28;100675.22;;;7.45
18713;BMP280;9485;49.386;8.674;2023-03-05T03:16:49;100666.78;;;7.45
18713;BMP280;9485;49.386;8.674;2023-03-05T03:22:12;100663.50;;;7.46
18713;BMP280;9485;49.386;8.674;2023-03-05T03:27:34;100655.53;;;7.45
18713;BMP280;9485;49.386;8.674;2023-03-05T03:32:54;100655.97;;;7.43
18713;BMP280;9485;49.386;8.674;2023-03-05T03:38:15;100655.06;;;7.46
18713;BMP280;9485;49.386;8.674;2023-03-05T03:43:37;100640.22;;;7.46
18713;BMP280;9485;49.386;8.674;2023-03-05T03:48:57;100635.22;;;7.41
18713;BMP280;9485;49.386;8.674;2023-03-05T03:54:19;100640.69;;;7.44
18713;BMP280;9485;49.386;8.674;2023-03-05T03:59:41;100641.78;;;7.47
18713;BMP280;9485;49.386;8.674;2023-03-05T04:05:05;100637.41;;;7.46
18713;BMP280;9485;49.386;8.674;2023-03-05T04:10:25;100637.13;;;7.44
18713;BMP280;9485;49.386;8.674;2023-03-05T04:15:48;100621.66;;;7.40
18713;BMP280;9485;49.386;8.674;2023-03-05T04:21:10;100618.38;;;7.32
18713;BMP280;9485;49.386;8.674;2023-03-05T04:26:30;100622.47;;;7.31
18713;BMP280;9485;49.386;8.674;2023-03-05T04:31:52;100621.66;;;7.31
18713;BMP280;9485;49.386;8.674;2023-03-05T04:37:13;100608.56;;;7.28
18713;BMP280;9485;49.386;8.674;2023-03-05T04:42:33;100612.63;;;7.27
18713;BMP280;9485;49.386;8.674;2023-03-05T04:47:56;100603.41;;;7.26
18713;BMP280;9485;49.386;8.674;2023-03-05T04:53:18;100607.94;;;7.24
18713;BMP280;9485;49.386;8.674;2023-03-05T04:58:39;100608.41;;;7.22
18713;BMP280;9485;49.386;8.674;2023-03-05T05:04:01;100614.78;;;7.23
18713;BMP280;9485;49.386;8.674;2023-03-05T05:09:23;100601.38;;;7.18
18713;BMP280;9485;49.386;8.674;2023-03-05T05:14:44;100600.63;;;7.17
18713;BMP280;9485;49.386;8.674;2023-03-05T05:20:10;100600.47;;;7.12
18713;BMP280;9485;49.386;8.674;2023-03-05T05:25:31;100601.25;;;7.03
18713;BMP280;9485;49.386;8.674;2023-03-05T05:30:53;100603.91;;;7.07
18713;BMP280;9485;49.386;8.674;2023-03-05T05:36:17;100597.50;;;7.06
18713;BMP280;9485;49.386;8.674;2023-03-05T05:41:40;100597.00;;;7.08
18713;BMP280;9485;49.386;8.674;2023-03-05T05:47:00;100599.66;;;7.11
18713;BMP280;9485;49.386;8.674;2023-03-05T05:52:23;100587.34;;;7.09
18713;BMP280;9485;49.386;8.674;2023-03-05T05:57:43;100597.66;;;7.12
18713;BMP280;9485;49.386;8.674;2023-03-05T06:03:04;100591.09;;;7.15
18713;BMP280;9485;49.386;8.674;2023-03-05T06:08:27;100585.47;;;7.15
18713;BMP280;9485;49.386;8.674;2023-03-05T06:13:48;100581.13;;;7.14
18713;BMP280;9485;49.386;8.674;2023-03-05T06:19:11;100579.25;;;7.11
18713;BMP280;9485;49.386;8.674;2023-03-05T06:24:33;100584.84;;;7.11
18713;BMP280;9485;49.386;8.674;2023-03-05T06:29:54;100593.28;;;7.11
18713;BMP280;9485;49.386;8.674;2023-03-05T06:35:15;100587.81;;;7.07
18713;BMP280;9485;49.386;8.674;2023-03-05T06:40:39;100578.91;;;7.09
18713;BMP280;9485;49.386;8.674;2023-03-05T06:46:07;100583.13;;;7.13
18713;BMP280;9485;49.386;8.674;2023-03-05T06:51:37;100583.94;;;7.14
18713;BMP280;9485;49.386;8.674;2023-03-05T06:57:00;100577.38;;;7.17
18713;BMP280;9485;49.386;8.674;2023-03-05T07:02:22;100579.53;;;7.22
18713;BMP280;9485;49.386;8.674;2023-03-05T07:08:09;100575.19;;;7.21
18713;BMP280;9485;49.386;8.674;2023-03-05T07:13:33;100577.84;;;7.24
18713;BMP280;9485;49.386;8.674;2023-03-05T07:18:57;100578.91;;;7.27
18713;BMP280;9485;49.386;8.674;2023-03-05T07:24:27;100582.81;;;7.29
18713;BMP280;9485;49.386;8.674;2023-03-05T07:29:50;100580.78;;;7.30
18713;BMP280;9485;49.386;8.674;2023-03-05T07:35:11;100567.38;;;7.34
18713;BMP280;9485;49.386;8.674;2023-03-05T07:40:33;100574.84;;;7.37
18713;BMP280;9485;49.386;8.674;2023-03-05T07:45:56;100568.44;;;7.36
18713;BMP280;9485;49.386;8.674;2023-03-05T07:51:22;100565.16;;;7.38
18713;BMP280;9485;49.386;8.674;2023-03-05T07:56:44;100560.47;;;7.43
18713;BMP280;9485;49.386;8.674;2023-03-05T08:02:09;100565.72;;;7.59
18713;BMP280;9485;49.386;8.674;2023-03-05T08:07:31;100570.84;;;7.70
18713;BMP280;9485;49.386;8.674;2023-03-05T08:12:52;100572.34;;;7.89
18713;BMP280;9485;49.386;8.674;2023-03-05T08:18:15;100564.03;;;8.03
18713;BMP280;9485;49.386;8.674;2023-03-05T08:23:37;100558.19;;;8.16
18713;BMP280;9485;49.386;8.674;2023-03-05T08:28:59;100550.19;;;8.23
18713;BMP280;9485;49.386;8.674;2023-03-05T08:34:24;100543.25;;;8.33
18713;BMP280;9485;49.386;8.674;2023-03-05T08:39:48;100540.38;;;8.42
18713;BMP280;9485;49.386;8.674;2023-03-05T08:45:12;100544.97;;;8.54
18713;BMP280;9485;49.386;8.674;2023-03-05T08:50:37;100540.63;;;8.76
18713;BMP280;9485;49.386;8.674;2023-03-05T08:55:58;100540.38;;;9.03
18713;BMP280;9485;49.386;8.674;2023-03-05T09:01:19;100544.56;;;9.22
18713;BMP280;9485;49.386;8.674;2023-03-05T09:06:42;100535.97;;;9.40
18713;BMP280;9485;49.386;8.674;2023-03-05T09:12:07;100544.22;;;9.58
18713;BMP280;9485;49.386;8.674;2023-03-05T09:17:30;100526.19;;;9.69
18713;BMP280;9485;49.386;8.674;2023-03-05T09:22:53;100517.25;;;9.85
18713;BMP280;9485;49.386;8.674;2023-03-05T09:28:15;100511.19;;;10.07
18713;BMP280;9485;49.386;8.674;2023-03-05T09:33:37;100505.59;;;10.27
18713;BMP280;9485;49.386;8.674;2023-03-05T09:39:03;100502.34;;;10.34
18713;BMP280;9485;49.386;8.674;2023-03-05T09:44:33;100495.28;;;10.44
18713;BMP280;9485;49.386;8.674;2023-03-05T09:50:00;100505.69;;;10.52
18713;BMP280;9485;49.386;8.674;2023-03-05T09:55:30;100500.59;;;10.56
18713;BMP280;9485;49.386;8.674;2023-03-05T10:00:58;100494.94;;;10.56
18713;BMP280;9485;49.386;8.674;2023-03-05T10:06:24;100493.16;;;10.58
18713;BMP280;9485;49.386;8.674;2023-03-05T10:11:54;100485.41;;;10.53
18713;BMP280;9485;49.386;8.674;2023-03-05T10:17:52;100471.22;;;10.48
18713;BMP280;9485;49.386;8.674;2023-03-05T10:29:55;100464.44;;;10.40
18713;BMP280;9485;49.386;8.674;2023-03-05T10:35:42;100466.34;;;10.29
18713;BMP280;9485;49.386;8.674;2023-03-05T10:41:15;100456.47;;;10.19
18713;BMP280;9485;49.386;8.674;2023-03-05T10:46:45;100458.72;;;10.15
18713;BMP280;9485;49.386;8.674;2023-03-05T10:52:13;100451.34;;;10.17
18713;BMP280;9485;49.386;8.674;2023-03-05T10:57:36;100436.94;;;10.15
18713;BMP280;9485;49.386;8.674;2023-03-05T11:03:03;100442.91;;;10.23
18713;BMP280;9485;49.386;8.674;2023-03-05T11:08:29;100426.84;;;10.29
18713;BMP280;9485;49.386;8.674;2023-03-05T11:13:58;100426.63;;;10.32
18713;BMP280;9485;49.386;8.674;2023-03-05T11:19:26;100424.22;;;10.25
18713;BMP280;9485;49.386;8.674;2023-03-05T11:25:13;100404.97;;;10.24
18713;BMP280;9485;49.386;8.674;2023-03-05T11:31:18;100404.22;;;10.23
18713;BMP280;9485;49.386;8.674;2023-03-05T11:36:59;100406.31;;;10.28
18713;BMP280;9485;49.386;8.674;2023-03-05T11:42:22;100397.84;;;10.28
18713;BMP280;9485;49.386;8.674;2023-03-05T11:47:48;100391.69;;;10.30
18713;BMP280;9485;49.386;8.674;2023-03-05T11:53:19;100393.25;;;10.31
18713;BMP280;9485;49.386;8.674;2023-03-05T11:58:49;100387.59;;;10.31
18713;BMP280;9485;49.386;8.674;2023-03-05T12:04:13;100376.69;;;10.38
18713;BMP280;9485;49.386;8.674;2023-03-05T12:09:41;100356.69;;;10.42
18713;BMP280;9485;49.386;8.674;2023-03-05T12:15:36;100351.31;;;10.44
18713;BMP280;9485;49.386;8.674;2023-03-05T12:21:06;100319.66;;;10.34
18713;BMP280;9485;49.386;8.674;2023-03-05T12:27:04;100332.16;;;10.53
18713;BMP280;9485;49.386;8.674;2023-03-05T12:32:56;100325.81;;;10.58
18713;BMP280;9485;49.386;8.674;2023-03-05T12:38:30;100317.28;;;10.52
18713;BMP280;9485;49.386;8.674;2023-03-05T12:44:19;100314.63;;;10.44
18713;BMP280;9485;49.386;8.674;2023-03-05T12:49:45;100303.63;;;10.46
18713;BMP280;9485;49.386;8.674;2023-03-05T12:55:18;100302.34;;;10.47
18713;BMP280;9485;49.386;8.674;2023-03-05T13:00:48;100291.34;;;10.48
18713;BMP280;9485;49.386;8.674;2023-03-05T13:06:26;100287.06;;;10.33
18713;BMP280;9485;49.386;8.674;2023-03-05T13:11:51;100283.91;;;10.26
18713;BMP280;9485;49.386;8.674;2023-03-05T13:17:42;100274.03;;;10.16
18713;BMP280;9485;49.386;8.674;2023-03-05T13:23:33;100274.47;;;10.09
18713;BMP280;9485;49.386;8.674;2023-03-05T13:29:11;100263.84;;;9.98
18713;BMP280;9485;49.386;8.674;2023-03-05T13:34:35;100264.03;;;9.95
18713;BMP280;9485;49.386;8.674;2023-03-05T13:40:00;100257.88;;;9.96
18713;BMP280;9485;49.386;8.674;2023-03-05T13:45:29;100262.06;;;10.01
18713;BMP280;9485;49.386;8.674;2023-03-05T13:50:56;100252.56;;;9.98
18713;BMP280;9485;49.386;8.674;2023-03-05T13:56:19;100251.81;;;9.98
18713;BMP280;9485;49.386;8.674;2023-03-05T14:01:46;100248.19;;;9.97
18713;BMP280;9485;49.386;8.674;2023-03-05T14:07:29;100244.78;;;9.93
18713;BMP280;9485;49.386;8.674;2023-03-05T14:12:51;100221.66;;;9.89
18713;BMP280;9485;49.386;8.674;2023-03-05T14:18:19;100217.78;;;9.87
18713;BMP280;9485;49.386;8.674;2023-03-05T14:23:43;100216.81;;;9.90
18713;BMP280;9485;49.386;8.674;2023-03-05T14:29:15;100188.44;;;9.73
18713;BMP280;9485;49.386;8.674;2023-03-05T14:34:39;100203.44;;;9.85
18713;BMP280;9485;49.386;8.674;2023-03-05T14:40:05;100194.75;;;9.88
18713;BMP280;9485;49.386;8.674;2023-03-05T14:45:50;100188.00;;;9.80
18713;BMP280;9485;49.386;8.674;2023-03-05T14:51:11;100174.38;;;9.79
18713;BMP280;9485;49.386;8.674;2023-03-05T14:56:33;100167.16;;;9.72
18713;BMP280;9485;49.386;8.674;2023-03-05T15:01:54;100158.06;;;9.63
18713;BMP280;9485;49.386;8.674;2023-03-05T15:07:27;100157.28;;;9.63
18713;BMP280;9485;49.386;8.674;2023-03-05T15:12:50;100135.38;;;9.52
18713;BMP280;9485;49.386;8.674;2023-03-05T15:18:13;100143.16;;;9.57
18713;BMP280;9485;49.386;8.674;2023-03-05T15:23:34;100130.75;;;9.49
18713;BMP280;9485;49.386;8.674;2023-03-05T15:28:58;100126.09;;;9.46
18713;BMP280;9485;49.386;8.674;2023-03-05T15:34:18;100113.00;;;9.43
18713;BMP280;9485;49.386;8.674;2023-03-05T15:39:39;100111.19;;;9.40
18713;BMP280;9485;49.386;8.674;2023-03-05T15:45:01;100099.38;;;9.36
18713;BMP280;9485;49.386;8.674;2023-03-05T15:50:22;100097.84;;;9.41
18713;BMP280;9485;49.386;8.674;2023-03-05T15:55:44;100082.78;;;9.44
18713;BMP280;9485;49.386;8.674;2023-03-05T16:01:06;100085.91;;;9.51
18713;BMP280;9485;49.386;8.674;2023-03-05T16:06:27;100076.53;;;9.60
18713;BMP280;9485;49.386;8.674;2023-03-05T16:11:48;100074.84;;;9.68
18713;BMP280;9485;49.386;8.674;2023-03-05T16:17:12;100070.72;;;9.68
18713;BMP280;9485;49.386;8.674;2023-03-05T16:22:34;100063.56;;;9.68
18713;BMP280;9485;49.386;8.674;2023-03-05T16:27:55;100065.88;;;9.69
18713;BMP280;9485;49.386;8.674;2023-03-05T16:33:17;100053.31;;;9.70
18713;BMP280;9485;49.386;8.674;2023-03-05T16:38:37;100050.72;;;9.67
18713;BMP280;9485;49.386;8.674;2023-03-05T16:44:23;100043.47;;;9.60
18713;BMP280;9485;49.386;8.674;2023-03-05T16:49:45;100037.75;;;9.49
18713;BMP280;9485;49.386;8.674;2023-03-05T16:55:06;100037.63;;;9.38
18713;BMP280;9485;49.386;8.674;2023-03-05T17:00:27;100028.56;;;9.29
18713;BMP280;9485;49.386;8.674;2023-03-05T17:05:49;100004.53;;;9.08
18713;BMP280;9485;49.386;8.674;2023-03-05T17:11:10;100030.50;;;9.17
18713;BMP280;9485;49.386;8.674;2023-03-05T17:16:31;100025.28;;;9.10
18713;BMP280;9485;49.386;8.674;2023-03-05T17:21:53;100022.16;;;9.03
18713;BMP280;9485;49.386;8.674;2023-03-05T17:27:13;100025.41;;;8.96
18713;BMP280;9485;49.386;8.674;2023-03-05T17:32:37;100029.91;;;8.88
18713;BMP280;9485;49.386;8.674;2023-03-05T17:38:02;100031.38;;;8.84
18713;BMP280;9485;49.386;8.674;2023-03-05T17:43:23;100028.03;;;8.80
18713;BMP280;9485;49.386;8.674;2023-03-05T17:48:43;100027.94;;;8.74
18713;BMP280;9485;49.386;8.674;2023-03-05T17:54:05;100025.06;;;8.69
18713;BMP280;9485;49.386;8.674;2023-03-05T17:59:26;100027.31;;;8.65
18713;BMP280;9485;49.386;8.674;2023-03-05T18:04:47;100032.38;;;8.61
18713;BMP280;9485;49.386;8.674;2023-03-05T18:10:15;100025.34;;;8.51
18713;BMP280;9485;49.386;8.674;2023-03-05T18:15:41;100021.41;;;8.43
18713;BMP280;9485;49.386;8.674;2023-03-05T18:21:05;100023.88;;;8.35
18713;BMP280;9485;49.386;8.674;2023-03-05T18:26:27;100019.91;;;8.27
18713;BMP280;9485;49.386;8.674;2023-03-05T18:31:48;100005.69;;;8.17
18713;BMP280;9485;49.386;8.674;2023-03-05T18:37:08;100008.06;;;8.23
18713;BMP280;9485;49.386;8.674;2023-03-05T18:42:32;99997.13;;;8.25
18713;BMP280;9485;49.386;8.674;2023-03-05T18:47:54;99999.44;;;8.27
18713;BMP280;9485;49.386;8.674;2023-03-05T18:53:15;99996.91;;;8.29
18713;BMP280;9485;49.386;8.674;2023-03-05T18:58:37;99984.41;;;8.30
18713;BMP280;9485;49.386;8.674;2023-03-05T19:03:58;99988.25;;;8.32
18713;BMP280;9485;49.386;8.674;2023-03-05T19:09:19;99993.13;;;8.32
18713;BMP280;9485;49.386;8.674;2023-03-05T19:14:57;99980.31;;;8.31
18713;BMP280;9485;49.386;8.674;2023-03-05T19:20:18;99969.06;;;8.31
18713;BMP280;9485;49.386;8.674;2023-03-05T19:25:44;99968.03;;;8.28
18713;BMP280;9485;49.386;8.674;2023-03-05T19:31:06;99968.22;;;8.25
18713;BMP280;9485;49.386;8.674;2023-03-05T19:36:28;99955.34;;;8.19
18713;BMP280;9485;49.386;8.674;2023-03-05T19:41:49;99962.13;;;8.12
18713;BMP280;9485;49.386;8.674;2023-03-05T19:47:11;99934.06;;;7.98
18713;BMP280;9485;49.386;8.674;2023-03-05T19:52:32;99946.94;;;8.04
18713;BMP280;9485;49.386;8.674;2023-03-05T19:57:53;99946.75;;;8.08
18713;BMP280;9485;49.386;8.674;2023-03-05T20:03:15;99945.25;;;8.12
18713;BMP280;9485;49.386;8.674;2023-03-05T20:08:36;99940.41;;;8.13
18713;BMP280;9485;49.386;8.674;2023-03-05T20:13:57;99930.25;;;8.15
18713;BMP280;9485;49.386;8.674;2023-03-05T20:19:19;99929.00;;;8.16
18713;BMP280;9485;49.386;8.674;2023-03-05T20:24:40;99929.28;;;8.18
18713;BMP280;9485;49.386;8.674;2023-03-05T20:30:01;99918.03;;;8.18
18713;BMP280;9485;49.386;8.674;2023-03-05T20:35:25;99922.56;;;8.16
18713;BMP280;9485;49.386;8.674;2023-03-05T20:40:46;99917.91;;;8.13
18713;BMP280;9485;49.386;8.674;2023-03-05T20:46:14;99917.13;;;8.12
18713;BMP280;9485;49.386;8.674;2023-03-05T20:51:37;99905.31;;;8.08
18713;BMP280;9485;49.386;8.674;2023-03-05T20:56:58;99911.44;;;8.07
18713;BMP280;9485;49.386;8.674;2023-03-05T21:02:18;99904.28;;;8.06
18713;BMP280;9485;49.386;8.674;2023-03-05T21:07:40;99903.22;;;8.03
18713;BMP280;9485;49.386;8.674;2023-03-05T21:13:00;99895.25;;;8.02
18713;BMP280;9485;49.386;8.674;2023-03-05T21:18:21;99892.53;;;8.07
18713;BMP280;9485;49.386;8.674;2023-03-05T21:23:43;99880.03;;;8.08
18713;BMP280;9485;49.386;8.674;2023-03-05T21:29:04;99877.22;;;8.08
18713;BMP280;9485;49.386;8.674;2023-03-05T21:34:24;99872.34;;;8.09
18713;BMP280;9485;49.386;8.674;2023-03-05T21:39:46;99864.91;;;8.06
18713;BMP280;9485;49.386;8.674;2023-03-05T21:45:09;99859.78;;;8.04
18713;BMP280;9485;49.386;8.674;2023-03-05T21:50:31;99851.06;;;8.02
18713;BMP280;9485;49.386;8.674;2023-03-05T21:55:54;99847.22;;;8.00
18713;BMP280;9485;49.386;8.674;2023-03-05T22:01:23;99835.38;;;7.96
18713;BMP280;9485;49.386;8.674;2023-03-05T22:06:44;99829.97;;;7.92
18713;BMP280;9485;49.386;8.674;2023-03-05T22:12:06;99822.81;;;7.91
18713;BMP280;9485;49.386;8.674;2023-03-05T22:17:28;99816.41;;;7.91
18713;BMP280;9485;49.386;8.674;2023-03-05T22:22:49;99808.69;;;7.86
18713;BMP280;9485;49.386;8.674;2023-03-05T22:28:11;99795.13;;;7.84
18713;BMP280;9485;49.386;8.674;2023-03-05T22:33:32;99800.94;;;7.81
18713;BMP280;9485;49.386;8.674;2023-03-05T22:38:53;99795.06;;;7.79
18713;BMP280;9485;49.386;8.674;2023-03-05T22:44:15;99783.53;;;7.77
18713;BMP280;9485;49.386;8.674;2023-03-05T22:49:36;99776.59;;;7.72
18713;BMP280;9485;49.386;8.674;2023-03-05T22:54:56;99762.25;;;7.70
18713;BMP280;9485;49.386;8.674;2023-03-05T23:00:22;99769.91;;;7.70
18713;BMP280;9485;49.386;8.674;2023-03-05T23:05:45;99746.38;;;7.67
18713;BMP280;9485;49.386;8.674;2023-03-05T23:11:10;99752.00;;;7.67
18713;BMP280;9485;49.386;8.674;2023-03-05T23:16:33;99747.94;;;7.68
18713;BMP280;9485;49.386;8.674;2023-03-05T23:21:53;99735.66;;;7.66
18713;BMP280;9485;49.386;8.674;2023-03-05T23:27:16;99728.94;;;7.63
18713;BMP280;9485;49.386;8.674;2023-03-05T23:32:38;99732.75;;;7.60
18713;BMP280;9485;49.386;8.674;2023-03-05T23:38:02;99724.03;;;7.58
18713;BMP280;9485;49.386;8.674;2023-03-05T23:43:24;99723.75;;;7.56
18713;BMP280;9485;49.386;8.674;2023-03-05T23:48:46;99717.88;;;7.54
18713;BMP280;9485;49.386;8.674;2023-03-05T23:54:07;99710.72;;;7.53
18713;BMP280;9485;49.386;8.674;2023-03-05T23:59:27;99705.38;;;7.55
